createdAt,value
2022-10-23T00:08:39.343Z,1019.17
2022-10-23T00:18:19.719Z,1019.23
2022-10-23T00:28:05.677Z,1019.24
2022-10-23T00:37:51.338Z,1019.29
2022-10-23T00:42:43.860Z,1019.23
2022-10-23T00:47:30.487Z,1019.31
2022-10-23T00:52:24.004Z,1019.28
2022-10-23T00:57:17.821Z,1019.25
2022-10-23T01:02:12.683Z,1019.24
2022-10-23T01:11:52.601Z,1019.19
2022-10-23T01:21:34.430Z,1019.1
2022-10-23T01:26:28.378Z,1019.16
2022-10-23T01:31:22.659Z,1019.11
2022-10-23T01:36:15.150Z,1019.08
2022-10-23T01:41:07.813Z,1019.11
2022-10-23T01:46:02.195Z,1019.02
2022-10-23T01:50:56.533Z,1018.96
2022-10-23T01:55:50.961Z,1018.92
2022-10-23T02:00:45.829Z,1018.97
2022-10-23T02:10:25.608Z,1018.84
2022-10-23T02:15:21.439Z,1018.83
2022-10-23T02:20:13.666Z,1018.76
2022-10-23T02:25:06.484Z,1018.65
2022-10-23T02:29:59.299Z,1018.64
2022-10-23T02:34:52.448Z,1018.55
2022-10-23T02:39:39.435Z,1018.51
2022-10-23T02:44:34.778Z,1018.48
2022-10-23T02:54:15.468Z,1018.6
2022-10-23T02:59:09.388Z,1018.64
2022-10-23T03:04:01.945Z,1018.61
2022-10-23T03:08:56.569Z,1018.58
2022-10-23T03:13:48.787Z,1018.55
2022-10-23T03:18:43.376Z,1018.58
2022-10-23T03:23:37.572Z,1018.55
2022-10-23T03:28:29.679Z,1018.55
2022-10-23T03:33:22.657Z,1018.51
2022-10-23T03:38:17.574Z,1018.55
2022-10-23T03:43:09.972Z,1018.6
2022-10-23T03:48:04.925Z,1018.57
2022-10-23T03:52:59.016Z,1018.54
2022-10-23T03:57:53.429Z,1018.48
2022-10-23T04:02:46.005Z,1018.59
2022-10-23T04:07:37.926Z,1018.6
2022-10-23T04:12:24.845Z,1018.61
2022-10-23T04:17:19.919Z,1018.58
2022-10-23T04:22:13.046Z,1018.59
2022-10-23T04:26:59.598Z,1018.52
2022-10-23T04:31:55.055Z,1018.53
2022-10-23T04:36:47.791Z,1018.55
2022-10-23T04:41:42.881Z,1018.58
2022-10-23T04:46:35.000Z,1018.5
2022-10-23T04:51:30.029Z,1018.49
2022-10-23T05:01:12.127Z,1018.49
2022-10-23T05:06:05.273Z,1018.53
2022-10-23T05:10:57.757Z,1018.46
2022-10-23T05:15:50.517Z,1018.36
2022-10-23T05:20:43.768Z,1018.37
2022-10-23T05:25:36.977Z,1018.36
2022-10-23T05:30:29.850Z,1018.31
2022-10-23T05:35:24.666Z,1018.26
2022-10-23T05:40:18.670Z,1018.22
2022-10-23T05:45:10.952Z,1018.23
2022-10-23T05:54:56.228Z,1018.33
2022-10-23T06:04:41.404Z,1018.36
2022-10-23T06:19:14.398Z,1018.37
2022-10-23T06:24:08.297Z,1018.44
2022-10-23T06:29:00.994Z,1018.31
2022-10-23T06:33:52.850Z,1018.25
2022-10-23T06:38:45.292Z,1018.14
2022-10-23T06:43:38.152Z,1018.16
2022-10-23T06:48:32.535Z,1018.33
2022-10-23T06:53:24.829Z,1018.42
2022-10-23T06:58:17.339Z,1018.45
2022-10-23T07:03:10.286Z,1018.41
2022-10-23T07:08:02.711Z,1018.46
2022-10-23T07:12:55.367Z,1018.43
2022-10-23T07:17:46.689Z,1018.27
2022-10-23T07:22:41.962Z,1018.19
2022-10-23T07:27:35.780Z,1018.07
2022-10-23T07:32:27.968Z,1018.12
2022-10-23T07:37:20.687Z,1018.16
2022-10-23T07:42:15.501Z,1018.2
2022-10-23T07:47:07.631Z,1018.17
2022-10-23T07:52:00.376Z,1018.15
2022-10-23T07:56:52.962Z,1018.16
2022-10-23T08:01:45.768Z,1018.07
2022-10-23T08:06:38.364Z,1017.94
2022-10-23T08:11:30.880Z,1017.86
2022-10-23T08:16:25.792Z,1017.76
2022-10-23T08:21:18.235Z,1017.81
2022-10-23T08:26:04.895Z,1017.79
2022-10-23T08:31:00.242Z,1017.82
2022-10-23T08:35:53.620Z,1017.89
2022-10-23T08:40:46.433Z,1017.9
2022-10-23T08:45:41.391Z,1017.95
2022-10-23T08:50:33.870Z,1017.85
2022-10-23T08:55:20.607Z,1017.82
2022-10-23T09:00:14.499Z,1017.68
2022-10-23T09:05:02.492Z,1017.61
2022-10-23T09:09:55.919Z,1017.62
2022-10-23T09:14:49.684Z,1017.58
2022-10-23T09:19:36.488Z,1017.61
2022-10-23T09:24:31.890Z,1017.53
2022-10-23T09:29:25.390Z,1017.49
2022-10-23T09:34:18.461Z,1017.45
2022-10-23T09:39:12.995Z,1017.38
2022-10-23T09:44:07.884Z,1017.34
2022-10-23T09:49:01.010Z,1017.37
2022-10-23T09:53:54.699Z,1017.31
2022-10-23T09:58:47.527Z,1017.24
2022-10-23T10:03:41.612Z,1017.11
2022-10-23T10:08:33.900Z,1017.11
2022-10-23T10:13:26.634Z,1017.07
2022-10-23T10:18:13.664Z,1017.02
2022-10-23T10:23:09.284Z,1017
2022-10-23T10:28:02.396Z,1016.98
2022-10-23T10:32:55.339Z,1016.99
2022-10-23T10:37:49.305Z,1016.89
2022-10-23T10:42:40.583Z,1016.83
2022-10-23T10:47:35.403Z,1016.8
2022-10-23T10:52:29.934Z,1016.76
2022-10-23T10:57:24.516Z,1016.61
2022-10-23T11:02:18.885Z,1016.53
2022-10-23T11:07:11.403Z,1016.44
2022-10-23T11:12:03.777Z,1016.38
2022-10-23T11:16:56.544Z,1016.28
2022-10-23T11:21:50.936Z,1016.25
2022-10-23T11:26:43.475Z,1016.14
2022-10-23T11:31:36.434Z,1016.07
2022-10-23T11:36:29.509Z,1015.98
2022-10-23T11:41:23.605Z,1016
2022-10-23T11:46:16.375Z,1015.87
2022-10-23T11:51:08.932Z,1015.78
2022-10-23T11:56:01.834Z,1015.68
2022-10-23T12:00:57.039Z,1015.54
2022-10-23T12:05:43.432Z,1015.41
2022-10-23T12:10:39.442Z,1015.42
2022-10-23T12:15:32.441Z,1015.34
2022-10-23T12:20:26.836Z,1015.27
2022-10-23T12:25:13.412Z,1015.25
2022-10-23T12:30:06.912Z,1015.2
2022-10-23T12:39:55.558Z,1015.16
2022-10-23T12:44:49.825Z,1015.06
2022-10-23T12:49:42.294Z,1014.91
2022-10-23T12:59:27.799Z,1014.78
2022-10-23T13:04:22.478Z,1014.79
2022-10-23T13:09:14.904Z,1014.68
2022-10-23T13:14:07.573Z,1014.58
2022-10-23T13:18:59.971Z,1014.48
2022-10-23T13:23:46.850Z,1014.43
2022-10-23T13:28:40.649Z,1014.56
2022-10-23T13:33:34.357Z,1014.48
2022-10-23T13:38:26.805Z,1014.36
2022-10-23T13:43:19.690Z,1014.33
2022-10-23T13:48:12.410Z,1014.46
2022-10-23T13:53:06.609Z,1014.39
2022-10-23T13:57:59.291Z,1014.3
2022-10-23T14:02:51.788Z,1014.22
2022-10-23T14:07:44.618Z,1014.14
2022-10-23T14:12:36.888Z,1014.19
2022-10-23T14:17:29.688Z,1014.1
2022-10-23T14:22:16.544Z,1014.05
2022-10-23T14:27:10.454Z,1014.18
2022-10-23T14:31:58.274Z,1014.08
2022-10-23T14:37:03.989Z,1013.9
2022-10-23T14:41:45.618Z,1014
2022-10-23T14:46:40.422Z,1013.98
2022-10-23T14:51:26.822Z,1013.93
2022-10-23T14:56:20.552Z,1013.87
2022-10-23T15:01:08.902Z,1013.83
2022-10-23T15:06:03.796Z,1013.73
2022-10-23T15:10:56.756Z,1013.79
2022-10-23T15:15:52.071Z,1013.76
2022-10-23T15:20:44.383Z,1013.78
2022-10-23T15:25:36.818Z,1013.75
2022-10-23T15:30:31.637Z,1013.65
2022-10-23T15:35:23.711Z,1013.62
2022-10-23T15:40:18.496Z,1013.57
2022-10-23T15:45:12.830Z,1013.48
2022-10-23T15:50:05.467Z,1013.42
2022-10-23T15:54:58.469Z,1013.33
2022-10-23T15:59:50.910Z,1013.24
2022-10-23T16:04:45.606Z,1013.1
2022-10-23T16:09:39.815Z,1013.02
2022-10-23T16:14:32.412Z,1012.96
2022-10-23T16:19:24.762Z,1012.89
2022-10-23T16:24:19.519Z,1012.78
2022-10-23T16:29:11.713Z,1012.79
2022-10-23T16:33:58.665Z,1012.83
2022-10-23T16:38:52.362Z,1012.83
2022-10-23T16:43:46.275Z,1012.84
2022-10-23T16:48:38.890Z,1012.74
2022-10-23T16:53:33.722Z,1012.57
2022-10-23T16:58:20.325Z,1012.48
2022-10-23T17:03:13.817Z,1012.47
2022-10-23T17:08:07.641Z,1012.48
2022-10-23T17:13:00.603Z,1012.44
2022-10-23T17:17:53.534Z,1012.56
2022-10-23T17:22:45.877Z,1012.59
2022-10-23T17:27:38.805Z,1012.62
2022-10-23T17:32:32.439Z,1012.59
2022-10-23T17:37:24.811Z,1012.56
2022-10-23T17:42:19.767Z,1012.47
2022-10-23T17:47:12.743Z,1012.38
2022-10-23T17:52:04.855Z,1012.38
2022-10-23T17:56:57.283Z,1012.28
2022-10-23T18:06:44.907Z,1012.3
2022-10-23T18:16:33.495Z,1012.32
2022-10-23T18:21:28.623Z,1012.35
2022-10-23T18:26:20.426Z,1012.35
2022-10-23T18:31:12.847Z,1012.3
2022-10-23T18:36:07.521Z,1012.36
2022-10-23T18:40:59.845Z,1012.21
2022-10-23T18:45:46.869Z,1011.97
2022-10-23T18:50:40.155Z,1011.81
2022-10-23T19:00:20.836Z,1011.4
2022-10-23T19:05:14.517Z,1011.34
2022-10-23T19:10:02.110Z,1011.44
2022-10-23T19:14:57.516Z,1011.21
2022-10-23T19:19:44.570Z,1011.18
2022-10-23T19:24:38.059Z,1011.22
2022-10-23T19:29:31.606Z,1011.24
2022-10-23T19:34:18.628Z,1011.39
2022-10-23T19:39:12.290Z,1011.45
2022-10-23T19:43:59.676Z,1011.52
2022-10-23T19:48:52.863Z,1011.74
2022-10-23T19:53:40.820Z,1011.73
2022-10-23T19:58:36.378Z,1012.01
2022-10-23T20:03:28.978Z,1012.04
2022-10-23T20:08:21.724Z,1012.13
2022-10-23T20:13:20.564Z,1012.59
2022-10-23T20:18:02.914Z,1012.86
2022-10-23T20:22:57.090Z,1012.73
2022-10-23T20:27:52.529Z,1013
2022-10-23T20:32:45.205Z,1013.38
2022-10-23T20:37:31.631Z,1013.64
2022-10-23T20:42:25.297Z,1013.42
2022-10-23T20:47:18.908Z,1013.49
2022-10-23T20:52:05.791Z,1013.4
2022-10-23T20:56:59.371Z,1013.35
2022-10-23T21:01:55.291Z,1013.31
2022-10-23T21:06:57.578Z,1013.24
2022-10-23T21:11:35.334Z,1013.23
2022-10-23T21:16:28.962Z,1013.43
2022-10-23T21:21:23.769Z,1013.39
2022-10-23T21:26:15.857Z,1013.45
2022-10-23T21:31:08.604Z,1013.43
2022-10-23T21:36:13.377Z,1012.9
2022-10-23T21:40:55.551Z,1013.48
2022-10-23T21:45:52.604Z,1013.23
2022-10-23T21:50:44.757Z,1013.14
2022-10-23T21:55:37.001Z,1013
2022-10-23T22:00:29.712Z,1013.02
2022-10-23T22:05:22.858Z,1012.94
2022-10-23T22:10:15.222Z,1012.97
2022-10-23T22:15:07.814Z,1013
2022-10-23T22:20:00.604Z,1013.01
2022-10-23T22:24:53.640Z,1012.94
2022-10-23T22:29:48.493Z,1012.9
2022-10-23T22:34:52.184Z,1012.91
2022-10-23T22:39:35.883Z,1012.85
2022-10-23T22:44:22.440Z,1012.86
2022-10-23T22:49:15.503Z,1012.88
2022-10-23T22:54:03.620Z,1012.92
2022-10-23T22:58:56.895Z,1012.81
2022-10-23T23:03:50.628Z,1012.85
2022-10-23T23:08:45.979Z,1012.97
2022-10-23T23:13:32.283Z,1013.04
2022-10-23T23:18:25.357Z,1013.03
2022-10-23T23:28:06.632Z,1012.99
2022-10-23T23:32:54.610Z,1012.95
2022-10-23T23:37:48.139Z,1012.93
2022-10-23T23:42:41.917Z,1012.99
2022-10-23T23:47:36.571Z,1012.92
2022-10-23T23:52:28.878Z,1013.14
2022-10-23T23:57:15.556Z,1013.21
